createdAt,value
2022-12-18T00:01:18.934Z,-4.60
2022-12-18T00:03:46.584Z,-4.70
2022-12-18T00:06:13.610Z,-4.80
2022-12-18T00:08:41.378Z,-4.90
2022-12-18T00:11:11.351Z,-4.90
2022-12-18T00:13:38.517Z,-4.80
2022-12-18T00:16:07.908Z,-5.00
2022-12-18T00:18:35.322Z,-5.10
2022-12-18T00:21:04.704Z,-5.20
2022-12-18T00:23:32.543Z,-5.20
2022-12-18T00:26:04.020Z,-5.20
2022-12-18T00:28:31.395Z,-5.10
2022-12-18T00:31:06.000Z,-5.10
2022-12-18T00:33:33.291Z,-4.90
2022-12-18T00:36:08.715Z,-4.90
2022-12-18T00:38:36.335Z,-4.90
2022-12-18T00:41:03.188Z,-4.90
2022-12-18T00:43:30.044Z,-4.80
2022-12-18T00:45:56.986Z,-4.80
2022-12-18T00:48:23.823Z,-4.70
2022-12-18T00:50:51.336Z,-4.70
2022-12-18T00:53:18.665Z,-4.70
2022-12-18T00:55:45.962Z,-4.70
2022-12-18T00:58:13.839Z,-4.80
2022-12-18T01:00:40.683Z,-4.80
2022-12-18T01:03:07.896Z,-5.00
2022-12-18T01:05:34.734Z,-5.00
2022-12-18T01:08:01.461Z,-5.00
2022-12-18T01:10:28.258Z,-5.10
2022-12-18T01:12:54.942Z,-5.10
2022-12-18T01:15:21.899Z,-5.00
2022-12-18T01:17:48.638Z,-5.00
2022-12-18T01:20:15.386Z,-5.00
2022-12-18T01:22:42.143Z,-5.10
2022-12-18T01:25:09.128Z,-5.00
2022-12-18T01:27:35.833Z,-5.00
2022-12-18T01:30:02.807Z,-5.00
2022-12-18T01:32:32.084Z,-5.10
2022-12-18T01:34:59.047Z,-5.00
2022-12-18T01:37:25.971Z,-5.10
2022-12-18T01:39:53.905Z,-5.00
2022-12-18T01:42:20.909Z,-5.10
2022-12-18T01:44:50.536Z,-5.10
2022-12-18T01:47:22.596Z,-5.10
2022-12-18T01:49:49.319Z,-5.10
2022-12-18T01:52:17.935Z,-5.00
2022-12-18T01:54:45.851Z,-5.00
2022-12-18T01:57:12.609Z,-5.00
2022-12-18T01:59:41.673Z,-5.00
2022-12-18T02:02:09.357Z,-5.00
2022-12-18T02:04:36.193Z,-5.10
2022-12-18T02:07:15.451Z,-5.30
2022-12-18T02:09:51.177Z,-5.40
2022-12-18T02:12:21.854Z,-5.40
2022-12-18T02:15:18.337Z,-5.40
2022-12-18T02:17:56.322Z,-5.60
2022-12-18T02:20:36.623Z,-5.60
2022-12-18T02:23:03.249Z,-5.60
2022-12-18T02:25:55.774Z,-5.70
2022-12-18T02:28:26.839Z,-5.60
2022-12-18T02:30:57.196Z,-5.70
2022-12-18T02:33:29.882Z,-5.70
2022-12-18T02:35:58.830Z,-5.50
2022-12-18T02:38:26.695Z,-5.40
2022-12-18T02:40:55.125Z,-5.40
2022-12-18T02:43:21.905Z,-5.50
2022-12-18T02:46:00.401Z,-5.60
2022-12-18T02:48:31.236Z,-5.60
2022-12-18T02:51:15.612Z,-5.70
2022-12-18T02:53:52.350Z,-5.70
2022-12-18T02:56:29.851Z,-5.70
2022-12-18T02:59:01.390Z,-5.70
2022-12-18T03:01:36.803Z,-5.70
2022-12-18T03:04:09.137Z,-5.80
2022-12-18T03:06:45.966Z,-5.70
2022-12-18T03:09:20.321Z,-5.70
2022-12-18T03:11:55.665Z,-5.50
2022-12-18T03:14:24.387Z,-5.50
2022-12-18T03:16:54.888Z,-5.50
2022-12-18T03:19:26.554Z,-5.50
2022-12-18T03:21:56.998Z,-5.40
2022-12-18T03:24:25.095Z,-5.40
2022-12-18T03:26:58.289Z,-5.30
2022-12-18T03:29:51.416Z,-5.40
2022-12-18T03:32:29.672Z,-5.30
2022-12-18T03:35:01.272Z,-5.30
2022-12-18T03:37:28.331Z,-5.20
2022-12-18T03:39:55.022Z,-5.30
2022-12-18T03:42:26.723Z,-5.40
2022-12-18T03:44:53.379Z,-5.40
2022-12-18T03:47:34.792Z,-5.30
2022-12-18T03:50:12.597Z,-5.40
2022-12-18T03:52:47.175Z,-5.40
2022-12-18T03:55:14.143Z,-5.30
2022-12-18T03:57:43.568Z,-5.30
2022-12-18T04:00:16.587Z,-5.30
2022-12-18T04:02:53.765Z,-5.40
2022-12-18T04:05:21.439Z,-5.50
2022-12-18T04:07:50.655Z,-5.60
2022-12-18T04:10:18.173Z,-5.60
2022-12-18T04:12:45.198Z,-5.60
2022-12-18T04:15:12.891Z,-5.60
2022-12-18T04:17:44.232Z,-5.60
2022-12-18T04:20:11.142Z,-5.60
2022-12-18T04:22:37.997Z,-5.60
2022-12-18T04:25:05.192Z,-5.50
2022-12-18T04:27:31.973Z,-5.60
2022-12-18T04:29:58.658Z,-5.60
2022-12-18T04:32:25.344Z,-5.60
2022-12-18T04:34:52.037Z,-5.60
2022-12-18T04:37:18.720Z,-5.60
2022-12-18T04:39:45.454Z,-5.60
2022-12-18T04:42:12.169Z,-5.60
2022-12-18T04:44:38.812Z,-5.60
2022-12-18T04:47:05.522Z,-5.60
2022-12-18T04:49:32.174Z,-5.60
2022-12-18T04:51:58.847Z,-5.70
2022-12-18T04:54:25.546Z,-5.70
2022-12-18T04:56:52.224Z,-5.60
2022-12-18T04:59:19.142Z,-5.70
2022-12-18T05:01:45.963Z,-5.70
2022-12-18T05:04:12.710Z,-5.70
2022-12-18T05:06:39.398Z,-5.60
2022-12-18T05:09:06.074Z,-5.60
2022-12-18T05:11:32.769Z,-5.60
2022-12-18T05:13:59.490Z,-5.60
2022-12-18T05:16:26.217Z,-5.60
2022-12-18T05:18:52.991Z,-5.70
2022-12-18T05:21:19.665Z,-5.80
2022-12-18T05:23:46.313Z,-5.80
2022-12-18T05:26:17.610Z,-5.90
2022-12-18T05:28:44.699Z,-5.90
2022-12-18T05:31:11.522Z,-5.80
2022-12-18T05:33:38.738Z,-5.80
2022-12-18T05:36:08.184Z,-5.80
2022-12-18T05:38:37.167Z,-5.70
2022-12-18T05:41:08.080Z,-5.70
2022-12-18T05:43:37.283Z,-5.70
2022-12-18T05:46:06.980Z,-5.70
2022-12-18T05:48:33.976Z,-5.60
2022-12-18T05:51:09.314Z,-5.70
2022-12-18T05:53:37.126Z,-5.60
2022-12-18T05:56:06.131Z,-5.60
2022-12-18T05:58:33.930Z,-5.60
2022-12-18T06:01:18.711Z,-5.50
2022-12-18T06:03:46.231Z,-5.50
2022-12-18T06:06:24.794Z,-5.50
2022-12-18T06:08:52.105Z,-5.50
2022-12-18T06:11:21.758Z,-5.60
2022-12-18T06:13:56.175Z,-5.60
2022-12-18T06:16:24.979Z,-5.60
2022-12-18T06:18:51.978Z,-5.60
2022-12-18T06:21:19.096Z,-5.50
2022-12-18T06:23:45.770Z,-5.40
2022-12-18T06:26:13.575Z,-5.40
2022-12-18T06:28:40.458Z,-5.40
2022-12-18T06:31:08.096Z,-5.40
2022-12-18T06:33:36.258Z,-5.40
2022-12-18T06:36:12.473Z,-5.40
2022-12-18T06:38:42.546Z,-5.40
2022-12-18T06:41:11.197Z,-5.30
2022-12-18T06:43:38.745Z,-5.30
2022-12-18T06:46:06.593Z,-5.30
2022-12-18T06:48:33.868Z,-5.30
2022-12-18T06:51:00.818Z,-5.30
2022-12-18T06:53:27.841Z,-5.30
2022-12-18T06:56:06.368Z,-5.30
2022-12-18T06:58:36.386Z,-5.40
2022-12-18T07:01:05.530Z,-5.40
2022-12-18T07:03:32.739Z,-5.40
2022-12-18T07:05:59.480Z,-5.50
2022-12-18T07:08:26.596Z,-5.40
2022-12-18T07:10:56.251Z,-5.40
2022-12-18T07:13:23.732Z,-5.40
2022-12-18T07:15:50.664Z,-5.40
2022-12-18T07:18:17.355Z,-5.40
2022-12-18T07:20:44.082Z,-5.40
2022-12-18T07:23:11.069Z,-5.50
2022-12-18T07:25:38.382Z,-5.60
2022-12-18T07:28:05.603Z,-5.60
2022-12-18T07:30:32.360Z,-5.50
2022-12-18T07:32:59.173Z,-5.40
2022-12-18T07:35:25.859Z,-5.40
2022-12-18T07:37:52.574Z,-5.40
2022-12-18T07:40:19.267Z,-5.30
2022-12-18T07:42:45.956Z,-5.30
2022-12-18T07:45:12.623Z,-5.30
2022-12-18T07:47:39.269Z,-5.20
2022-12-18T07:50:06.696Z,-5.30
2022-12-18T07:52:33.402Z,-5.30
2022-12-18T07:55:00.733Z,-5.30
2022-12-18T07:57:49.560Z,-5.30
2022-12-18T08:00:14.871Z,-5.20
2022-12-18T08:02:42.285Z,-5.30
2022-12-18T08:05:09.545Z,-5.30
2022-12-18T08:07:36.217Z,-5.30
2022-12-18T08:10:03.180Z,-5.20
2022-12-18T08:12:30.736Z,-5.20
2022-12-18T08:14:57.512Z,-5.20
2022-12-18T08:17:24.323Z,-5.10
2022-12-18T08:19:50.988Z,-5.00
2022-12-18T08:22:17.722Z,-5.10
2022-12-18T08:24:44.368Z,-5.00
2022-12-18T08:27:28.963Z,-5.00
2022-12-18T08:29:56.050Z,-4.90
2022-12-18T08:32:22.746Z,-5.00
2022-12-18T08:34:49.463Z,-4.90
2022-12-18T08:37:16.172Z,-5.00
2022-12-18T08:39:42.865Z,-5.00
2022-12-18T08:42:10.385Z,-5.00
2022-12-18T08:44:37.233Z,-5.00
2022-12-18T08:47:04.699Z,-4.90
2022-12-18T08:49:31.356Z,-4.90
2022-12-18T08:51:58.469Z,-4.90
2022-12-18T08:54:26.146Z,-4.90
2022-12-18T08:56:53.165Z,-4.90
2022-12-18T08:59:20.289Z,-4.90
2022-12-18T09:01:48.482Z,-4.90
2022-12-18T09:04:15.466Z,-4.80
2022-12-18T09:06:42.241Z,-4.70
2022-12-18T09:09:10.587Z,-4.60
2022-12-18T09:11:37.834Z,-4.60
2022-12-18T09:14:04.771Z,-4.60
2022-12-18T09:16:33.063Z,-4.50
2022-12-18T09:19:00.829Z,-4.50
2022-12-18T09:21:30.822Z,-4.50
2022-12-18T09:23:57.803Z,-4.50
2022-12-18T09:26:26.239Z,-4.40
2022-12-18T09:28:53.225Z,-4.30
2022-12-18T09:31:22.841Z,-4.30
2022-12-18T09:33:49.747Z,-4.30
2022-12-18T09:36:18.655Z,-4.30
2022-12-18T09:38:45.575Z,-4.30
2022-12-18T09:41:27.021Z,-4.30
2022-12-18T09:43:58.870Z,-4.20
2022-12-18T09:46:33.953Z,-4.20
2022-12-18T09:49:03.913Z,-4.20
2022-12-18T09:51:37.821Z,-4.20
2022-12-18T09:54:08.010Z,-4.20
2022-12-18T09:56:40.631Z,-4.10
2022-12-18T09:59:16.030Z,-4.10
2022-12-18T10:01:44.649Z,-4.10
2022-12-18T10:04:12.650Z,-4.00
2022-12-18T10:07:08.774Z,-4.00
2022-12-18T10:09:47.618Z,-3.90
2022-12-18T10:12:20.963Z,-3.90
2022-12-18T10:15:11.322Z,-3.80
2022-12-18T10:17:52.502Z,-3.80
2022-12-18T10:20:39.465Z,-3.70
2022-12-18T10:23:33.684Z,-3.80
2022-12-18T10:26:03.353Z,-3.80
2022-12-18T10:28:32.199Z,-3.80
2022-12-18T10:30:59.819Z,-3.80
2022-12-18T10:33:30.942Z,-3.70
2022-12-18T10:35:57.757Z,-3.60
2022-12-18T10:38:32.588Z,-3.60
2022-12-18T10:41:26.321Z,-3.50
2022-12-18T10:44:31.740Z,-3.50
2022-12-18T10:47:10.194Z,-3.40
2022-12-18T10:49:47.117Z,-3.40
2022-12-18T10:52:20.278Z,-3.40
2022-12-18T10:54:52.140Z,-3.40
2022-12-18T10:57:32.079Z,-3.30
2022-12-18T11:00:01.289Z,-3.30
2022-12-18T11:02:36.306Z,-3.30
2022-12-18T11:05:04.774Z,-3.30
2022-12-18T11:07:49.821Z,-3.30
2022-12-18T11:10:19.121Z,-3.20
2022-12-18T11:12:46.161Z,-3.20
2022-12-18T11:15:24.387Z,-3.10
2022-12-18T11:17:52.443Z,-3.10
2022-12-18T11:20:33.330Z,-3.10
2022-12-18T11:23:03.666Z,-3.00
2022-12-18T11:25:34.607Z,-3.00
2022-12-18T11:28:04.246Z,-3.10
2022-12-18T11:30:38.562Z,-3.10
2022-12-18T11:33:11.558Z,-3.00
2022-12-18T11:35:54.546Z,-3.00
2022-12-18T11:38:26.790Z,-3.00
2022-12-18T11:41:22.803Z,-2.90
2022-12-18T11:44:00.564Z,-3.20
2022-12-18T11:46:33.202Z,-3.20
2022-12-18T11:49:04.456Z,-3.30
2022-12-18T11:52:01.302Z,-3.30
2022-12-18T11:54:28.102Z,-3.30
2022-12-18T11:56:58.481Z,-3.20
2022-12-18T11:59:54.948Z,-3.20
2022-12-18T12:02:29.171Z,-3.20
2022-12-18T12:05:17.534Z,-3.20
2022-12-18T12:08:07.835Z,-3.20
2022-12-18T12:10:47.617Z,-3.30
2022-12-18T12:13:35.777Z,-3.20
2022-12-18T12:16:37.179Z,-3.20
2022-12-18T12:19:06.910Z,-3.20
2022-12-18T12:21:50.605Z,-3.10
2022-12-18T12:24:20.070Z,-3.10
2022-12-18T12:26:57.824Z,-3.10
2022-12-18T12:29:40.918Z,-3.10
2022-12-18T12:32:28.813Z,-3.00
2022-12-18T12:35:09.421Z,-3.10
2022-12-18T12:37:42.588Z,-3.00
2022-12-18T12:40:49.247Z,-3.00
2022-12-18T12:43:20.752Z,-3.00
2022-12-18T12:45:53.279Z,-3.00
2022-12-18T12:48:51.178Z,-3.00
2022-12-18T12:51:27.193Z,-3.00
2022-12-18T12:53:57.199Z,-3.00
2022-12-18T12:56:28.663Z,-3.00
2022-12-18T12:59:33.235Z,-3.00
2022-12-18T13:02:32.058Z,-3.00
2022-12-18T13:05:22.235Z,-2.90
2022-12-18T13:07:58.500Z,-2.90
2022-12-18T13:10:31.090Z,-2.90
2022-12-18T13:13:17.179Z,-2.90
2022-12-18T13:16:08.175Z,-2.90
2022-12-18T13:18:35.413Z,-2.80
2022-12-18T13:21:04.728Z,-2.90
2022-12-18T13:23:33.363Z,-2.80
2022-12-18T13:26:08.789Z,-2.90
2022-12-18T13:28:47.632Z,-2.90
2022-12-18T13:31:15.230Z,-2.90
2022-12-18T13:34:24.404Z,-2.90
2022-12-18T13:36:36.095Z,-2.80
2022-12-18T13:39:21.261Z,-2.90
2022-12-18T13:42:07.125Z,-2.90
2022-12-18T13:47:33.017Z,-2.90
2022-12-18T13:50:03.984Z,-2.90
2022-12-18T13:52:38.025Z,-2.90
2022-12-18T13:55:08.734Z,-2.90
2022-12-18T13:57:39.752Z,-2.90
2022-12-18T14:00:29.014Z,-2.90
2022-12-18T14:02:57.240Z,-2.90
2022-12-18T14:05:24.775Z,-2.90
2022-12-18T14:07:52.630Z,-2.90
2022-12-18T14:10:45.613Z,-2.90
2022-12-18T14:13:10.517Z,-2.90
2022-12-18T14:15:42.085Z,-3.00
2022-12-18T14:18:21.031Z,-3.00
2022-12-18T14:20:52.612Z,-3.00
2022-12-18T14:23:36.233Z,-3.00
2022-12-18T14:26:19.904Z,-2.90
2022-12-18T14:28:46.699Z,-2.90
2022-12-18T14:31:24.599Z,-2.90
2022-12-18T14:33:52.486Z,-3.00
2022-12-18T14:36:21.998Z,-3.00
2022-12-18T14:38:53.552Z,-3.00
2022-12-18T14:41:21.292Z,-3.00
2022-12-18T14:43:50.216Z,-3.10
2022-12-18T14:46:36.955Z,-3.10
2022-12-18T14:49:33.640Z,-3.10
2022-12-18T14:52:05.674Z,-3.30
2022-12-18T14:54:36.348Z,-3.50
2022-12-18T14:57:37.094Z,-3.50
2022-12-18T15:00:18.889Z,-3.40
2022-12-18T15:02:49.272Z,-3.40
2022-12-18T15:05:29.394Z,-3.60
2022-12-18T15:07:58.365Z,-3.60
2022-12-18T15:10:29.168Z,-3.60
2022-12-18T15:12:58.505Z,-3.60
2022-12-18T15:15:51.708Z,-3.50
2022-12-18T15:18:33.295Z,-3.40
2022-12-18T15:21:12.230Z,-3.40
2022-12-18T15:23:45.206Z,-3.40
2022-12-18T15:26:14.904Z,-3.40
2022-12-18T15:28:50.701Z,-3.40
2022-12-18T15:31:18.031Z,-3.40
2022-12-18T15:34:19.085Z,-3.40
2022-12-18T15:36:45.724Z,-3.50
2022-12-18T15:39:13.493Z,-3.60
2022-12-18T15:41:40.319Z,-3.50
2022-12-18T15:44:24.668Z,-3.50
2022-12-18T15:46:51.425Z,-3.50
2022-12-18T15:49:18.118Z,-3.50
2022-12-18T15:51:45.001Z,-3.60
2022-12-18T15:54:15.578Z,-3.50
2022-12-18T15:56:42.680Z,-3.50
2022-12-18T15:59:16.212Z,-3.50
2022-12-18T16:01:45.923Z,-3.50
2022-12-18T16:04:14.739Z,-3.50
2022-12-18T16:07:12.734Z,-3.50
2022-12-18T16:09:28.059Z,-3.50
2022-12-18T16:11:54.845Z,-3.40
2022-12-18T16:14:25.107Z,-3.50
2022-12-18T16:16:54.776Z,-3.60
2022-12-18T16:19:21.944Z,-3.60
2022-12-18T16:21:50.041Z,-3.50
2022-12-18T16:24:21.984Z,-3.60
2022-12-18T16:26:49.352Z,-3.60
2022-12-18T16:29:16.071Z,-3.60
2022-12-18T16:31:42.951Z,-3.60
2022-12-18T16:34:12.670Z,-3.70
2022-12-18T16:36:39.318Z,-3.70
2022-12-18T16:39:06.054Z,-3.70
2022-12-18T16:41:33.353Z,-3.70
2022-12-18T16:44:01.014Z,-3.70
2022-12-18T16:46:27.698Z,-3.70
2022-12-18T16:48:54.402Z,-3.70
2022-12-18T16:51:21.086Z,-3.70
2022-12-18T16:53:47.754Z,-3.60
2022-12-18T16:56:14.658Z,-3.60
2022-12-18T16:58:41.380Z,-3.60
2022-12-18T17:01:11.807Z,-3.60
2022-12-18T17:03:38.982Z,-3.60
2022-12-18T17:06:06.968Z,-3.60
2022-12-18T17:08:33.605Z,-3.60
2022-12-18T17:11:07.769Z,-3.70
2022-12-18T17:13:34.644Z,-3.70
2022-12-18T17:16:06.106Z,-3.70
2022-12-18T17:18:33.403Z,-3.70
2022-12-18T17:21:06.297Z,-3.80
2022-12-18T17:23:32.991Z,-3.80
2022-12-18T17:26:00.354Z,-3.80
2022-12-18T17:28:28.188Z,-3.80
2022-12-18T17:30:56.022Z,-3.80
2022-12-18T17:33:23.714Z,-3.90
2022-12-18T17:35:50.561Z,-3.90
2022-12-18T17:38:17.785Z,-3.90
2022-12-18T17:40:46.439Z,-3.90
2022-12-18T17:43:13.346Z,-3.90
2022-12-18T17:45:40.489Z,-4.00
2022-12-18T17:48:08.005Z,-4.10
2022-12-18T17:50:35.677Z,-4.10
2022-12-18T17:53:03.150Z,-4.10
2022-12-18T17:55:30.170Z,-4.10
2022-12-18T17:57:56.847Z,-4.10
2022-12-18T18:00:23.571Z,-4.00
2022-12-18T18:02:50.445Z,-4.00
2022-12-18T18:05:17.348Z,-4.00
2022-12-18T18:07:44.018Z,-4.00
2022-12-18T18:10:10.777Z,-4.00
2022-12-18T18:12:37.511Z,-4.10
2022-12-18T18:15:05.057Z,-4.10
2022-12-18T18:17:32.362Z,-4.10
2022-12-18T18:19:59.022Z,-4.10
2022-12-18T18:22:25.790Z,-4.10
2022-12-18T18:24:52.721Z,-4.10
2022-12-18T18:27:19.404Z,-4.20
2022-12-18T18:29:46.081Z,-4.20
2022-12-18T18:32:12.797Z,-4.20
2022-12-18T18:34:39.479Z,-4.20
2022-12-18T18:37:06.656Z,-4.20
2022-12-18T18:39:33.373Z,-4.30
2022-12-18T18:42:00.084Z,-4.30
2022-12-18T18:44:26.733Z,-4.30
2022-12-18T18:46:54.639Z,-4.30
2022-12-18T18:49:21.546Z,-4.30
2022-12-18T18:51:50.418Z,-4.30
2022-12-18T18:54:17.095Z,-4.30
2022-12-18T18:59:31.258Z,-4.40
2022-12-18T19:01:59.815Z,-4.40
2022-12-18T19:04:29.521Z,-4.40
2022-12-18T19:06:56.212Z,-4.40
2022-12-18T19:09:24.232Z,-4.40
2022-12-18T19:11:52.240Z,-4.50
2022-12-18T19:14:19.433Z,-4.40
2022-12-18T19:16:46.228Z,-4.40
2022-12-18T19:19:13.518Z,-4.40
2022-12-18T19:21:40.874Z,-4.40
2022-12-18T19:24:08.041Z,-4.40
2022-12-18T19:26:36.912Z,-4.40
2022-12-18T19:29:05.694Z,-4.40
2022-12-18T19:31:35.932Z,-4.40
2022-12-18T19:34:04.561Z,-4.40
2022-12-18T19:36:32.126Z,-4.40
2022-12-18T19:39:00.978Z,-4.40
2022-12-18T19:41:31.084Z,-4.40
2022-12-18T19:43:58.324Z,-4.50
2022-12-18T19:46:25.138Z,-4.50
2022-12-18T19:48:52.257Z,-4.50
2022-12-18T19:51:25.315Z,-4.40
2022-12-18T19:53:58.544Z,-4.40
2022-12-18T19:56:30.226Z,-4.50
2022-12-18T19:58:57.485Z,-4.40
2022-12-18T20:01:26.173Z,-4.50
2022-12-18T20:03:56.123Z,-4.50
2022-12-18T20:06:26.921Z,-4.50
2022-12-18T20:08:57.661Z,-4.50
2022-12-18T20:11:27.327Z,-4.50
2022-12-18T20:13:54.028Z,-4.50
2022-12-18T20:16:21.064Z,-4.50
2022-12-18T20:18:48.204Z,-4.50
2022-12-18T20:21:15.055Z,-4.60
2022-12-18T20:23:43.852Z,-4.50
2022-12-18T20:26:11.243Z,-4.50
2022-12-18T20:28:40.328Z,-4.50
2022-12-18T20:31:13.295Z,-4.50
2022-12-18T20:33:40.804Z,-4.50
2022-12-18T20:36:12.274Z,-4.50
2022-12-18T20:38:39.859Z,-4.50
2022-12-18T20:41:12.135Z,-4.50
2022-12-18T20:43:39.844Z,-4.50
2022-12-18T20:46:09.965Z,-4.50
2022-12-18T20:48:36.844Z,-4.60
2022-12-18T20:51:06.874Z,-4.50
2022-12-18T20:53:34.668Z,-4.50
2022-12-18T20:56:05.732Z,-4.50
2022-12-18T20:58:32.429Z,-4.50
2022-12-18T21:01:20.240Z,-4.40
2022-12-18T21:03:47.761Z,-4.40
2022-12-18T21:06:17.018Z,-4.50
2022-12-18T21:08:44.388Z,-4.40
2022-12-18T21:11:19.986Z,-4.40
2022-12-18T21:13:46.623Z,-4.40
2022-12-18T21:16:13.282Z,-4.50
2022-12-18T21:18:40.117Z,-4.50
2022-12-18T21:21:06.919Z,-4.50
2022-12-18T21:23:33.594Z,-4.60
2022-12-18T21:26:16.455Z,-4.50
2022-12-18T21:28:43.322Z,-4.60
2022-12-18T21:31:10.363Z,-4.50
2022-12-18T21:33:38.817Z,-4.50
2022-12-18T21:36:06.981Z,-4.50
2022-12-18T21:38:33.974Z,-4.50
2022-12-18T21:41:00.874Z,-4.50
2022-12-18T21:43:27.866Z,-4.50
2022-12-18T21:45:57.659Z,-4.60
2022-12-18T21:48:25.891Z,-4.60
2022-12-18T21:50:52.561Z,-4.60
2022-12-18T21:53:19.213Z,-4.50
2022-12-18T21:55:46.006Z,-4.50
2022-12-18T21:58:12.662Z,-4.50
2022-12-18T22:00:39.300Z,-4.50
2022-12-18T22:03:18.895Z,-4.50
2022-12-18T22:05:46.268Z,-4.50
2022-12-18T22:08:16.373Z,-4.40
2022-12-18T22:10:43.405Z,-4.40
2022-12-18T22:13:10.176Z,-4.40
2022-12-18T22:15:37.002Z,-4.30
2022-12-18T22:18:03.772Z,-4.30
2022-12-18T22:20:30.447Z,-4.30
2022-12-18T22:22:57.737Z,-4.30
2022-12-18T22:25:24.492Z,-4.30
2022-12-18T22:27:51.157Z,-4.30
2022-12-18T22:30:17.877Z,-4.20
2022-12-18T22:32:44.586Z,-4.20
2022-12-18T22:35:15.792Z,-4.20
2022-12-18T22:37:42.790Z,-4.20
2022-12-18T22:40:22.236Z,-4.20
2022-12-18T22:42:50.855Z,-4.20
2022-12-18T22:45:19.760Z,-4.20
2022-12-18T22:47:46.419Z,-4.20
2022-12-18T22:50:14.148Z,-4.20
2022-12-18T22:52:41.296Z,-4.20
2022-12-18T22:55:08.230Z,-4.20
2022-12-18T22:57:35.017Z,-4.20
2022-12-18T23:00:03.267Z,-4.30
2022-12-18T23:02:30.119Z,-4.30
2022-12-18T23:04:56.963Z,-4.20
2022-12-18T23:07:23.612Z,-4.30
2022-12-18T23:09:50.514Z,-4.30
2022-12-18T23:12:18.953Z,-4.30
2022-12-18T23:14:46.162Z,-4.30
2022-12-18T23:17:12.932Z,-4.30
2022-12-18T23:19:44.055Z,-4.40
2022-12-18T23:22:13.964Z,-4.40
2022-12-18T23:24:40.706Z,-4.30
2022-12-18T23:27:11.580Z,-4.30
2022-12-18T23:29:39.698Z,-4.30
2022-12-18T23:32:07.414Z,-4.30
2022-12-18T23:34:34.406Z,-4.30
2022-12-18T23:37:01.179Z,-4.30
2022-12-18T23:39:29.793Z,-4.30
2022-12-18T23:42:00.484Z,-4.30
2022-12-18T23:44:27.839Z,-4.30
2022-12-18T23:46:54.990Z,-4.40
2022-12-18T23:49:21.973Z,-4.40
2022-12-18T23:51:49.322Z,-4.60
2022-12-18T23:54:16.060Z,-4.60
2022-12-18T23:56:42.833Z,-4.60
2022-12-18T23:59:09.770Z,-4.50
